createdAt,value
2022-10-11T00:01:05.670Z,95.8
2022-10-11T00:06:05.627Z,95.9
2022-10-11T00:11:05.381Z,96.1
2022-10-11T00:16:05.698Z,96.2
2022-10-11T00:21:05.652Z,96.1
2022-10-11T00:26:05.639Z,96.1
2022-10-11T00:31:06.551Z,96.1
2022-10-11T00:36:05.795Z,96.2
2022-10-11T00:41:05.384Z,96.2
2022-10-11T00:46:05.780Z,96.0
2022-10-11T00:51:05.961Z,96.2
2022-10-11T00:56:05.685Z,96.2
2022-10-11T01:01:05.416Z,96.2
2022-10-11T01:06:06.544Z,96.2
2022-10-11T01:11:05.405Z,96.2
2022-10-11T01:16:05.847Z,96.2
2022-10-11T01:21:05.896Z,96.2
2022-10-11T01:26:05.977Z,96.2
2022-10-11T01:31:05.409Z,96.3
2022-10-11T01:36:05.776Z,96.3
2022-10-11T01:41:05.663Z,96.2
2022-10-11T01:46:05.773Z,96.3
2022-10-11T01:51:05.935Z,96.4
2022-10-11T01:56:06.041Z,96.3
2022-10-11T02:01:05.473Z,96.3
2022-10-11T02:06:05.793Z,96.3
2022-10-11T02:11:06.202Z,96.5
2022-10-11T02:16:05.747Z,96.6
2022-10-11T02:21:05.936Z,96.6
2022-10-11T02:26:05.903Z,96.7
2022-10-11T02:31:05.444Z,96.6
2022-10-11T02:36:05.774Z,96.7
2022-10-11T02:41:05.459Z,96.5
2022-10-11T02:46:06.051Z,96.7
2022-10-11T02:51:05.765Z,96.7
2022-10-11T02:56:05.738Z,96.8
2022-10-11T03:01:05.469Z,96.8
2022-10-11T03:06:05.768Z,96.8
2022-10-11T03:11:05.467Z,96.8
2022-10-11T03:16:05.708Z,96.8
2022-10-11T03:21:05.956Z,96.8
2022-10-11T03:26:05.652Z,97.1
2022-10-11T03:31:05.485Z,96.9
2022-10-11T03:36:05.903Z,96.7
2022-10-11T03:41:05.490Z,96.6
2022-10-11T03:46:06.082Z,96.6
2022-10-11T03:51:05.973Z,96.6
2022-10-11T03:56:08.454Z,96.5
2022-10-11T04:01:05.498Z,96.4
2022-10-11T04:06:05.805Z,96.4
2022-10-11T04:11:05.510Z,96.3
2022-10-11T04:16:06.300Z,96.2
2022-10-11T04:21:05.754Z,96.1
2022-10-11T04:26:05.981Z,96.1
2022-10-11T04:31:05.517Z,96.1
2022-10-11T04:36:05.885Z,96.2
2022-10-11T04:41:05.523Z,96.3
2022-10-11T04:46:06.108Z,96.3
2022-10-11T04:51:06.011Z,96.2
2022-10-11T04:56:05.884Z,96.4
2022-10-11T05:01:05.536Z,96.2
2022-10-11T05:06:06.030Z,96.1
2022-10-11T05:11:05.549Z,96.2
2022-10-11T05:16:10.340Z,96.2
2022-10-11T05:21:06.028Z,96.3
2022-10-11T05:26:05.940Z,96.3
2022-10-11T05:31:05.549Z,96.3
2022-10-11T05:36:05.948Z,96.3
2022-10-11T05:41:05.554Z,96.2
2022-10-11T05:46:06.331Z,96.2
2022-10-11T05:51:06.038Z,96.4
2022-10-11T05:56:05.900Z,96.5
2022-10-11T06:01:05.639Z,96.4
2022-10-11T06:06:06.154Z,96.5
2022-10-11T06:11:09.116Z,96.4
2022-10-11T06:16:06.225Z,96.3
2022-10-11T06:21:06.070Z,96.5
2022-10-11T06:26:05.873Z,96.4
2022-10-11T06:31:05.595Z,96.4
2022-10-11T06:36:05.995Z,96.2
2022-10-11T06:41:05.593Z,96.1
2022-10-11T06:46:06.103Z,96.0
2022-10-11T06:51:06.107Z,95.9
2022-10-11T06:56:05.918Z,95.8
2022-10-11T07:01:05.747Z,95.7
2022-10-11T07:06:06.116Z,95.7
2022-10-11T07:11:05.605Z,95.6
2022-10-11T07:16:06.275Z,95.4
2022-10-11T07:21:05.608Z,95.3
2022-10-11T07:26:06.189Z,95.1
2022-10-11T07:31:05.613Z,94.9
2022-10-11T07:36:05.845Z,94.7
2022-10-11T07:41:05.617Z,94.4
2022-10-11T07:46:06.084Z,94.2
2022-10-11T07:51:05.629Z,94.0
2022-10-11T07:56:06.121Z,94.0
2022-10-11T08:01:05.726Z,93.8
2022-10-11T08:06:05.891Z,93.5
2022-10-11T08:11:05.659Z,93.0
2022-10-11T08:16:06.281Z,93.2
2022-10-11T08:21:05.645Z,93.0
2022-10-11T08:26:06.635Z,92.9
2022-10-11T08:31:05.647Z,92.9
2022-10-11T08:36:06.071Z,92.9
2022-10-11T08:41:05.664Z,92.7
2022-10-11T08:46:06.209Z,93.0
2022-10-11T08:51:05.670Z,92.8
2022-10-11T08:56:05.860Z,92.9
2022-10-11T09:01:06.034Z,92.5
2022-10-11T09:06:05.957Z,92.3
2022-10-11T09:11:05.673Z,92.0
2022-10-11T09:16:06.376Z,92.0
2022-10-11T09:21:05.679Z,92.3
2022-10-11T09:26:06.015Z,92.0
2022-10-11T09:31:06.180Z,91.6
2022-10-11T09:36:06.064Z,90.9
2022-10-11T09:41:05.689Z,90.4
2022-10-11T09:46:06.256Z,88.3
2022-10-11T09:51:05.691Z,88.3
2022-10-11T09:56:05.906Z,88.0
2022-10-11T10:01:08.285Z,88.8
2022-10-11T10:06:06.584Z,87.1
2022-10-11T10:11:05.713Z,86.8
2022-10-11T10:16:06.270Z,83.8
2022-10-11T10:21:05.717Z,83.2
2022-10-11T10:26:06.024Z,82.9
2022-10-11T10:31:05.713Z,81.9
2022-10-11T10:36:06.093Z,81.1
2022-10-11T10:41:06.214Z,81.8
2022-10-11T10:46:06.334Z,81.5
2022-10-11T10:51:09.737Z,80.1
2022-10-11T10:56:05.971Z,78.6
2022-10-11T11:01:05.741Z,78.3
2022-10-11T11:06:06.089Z,77.3
2022-10-11T11:11:05.740Z,77.8
2022-10-11T11:16:06.842Z,78.6
2022-10-11T11:21:05.752Z,78.7
2022-10-11T11:26:06.069Z,77.1
2022-10-11T11:31:06.064Z,75.8
2022-10-11T11:36:06.177Z,77.0
2022-10-11T11:41:06.090Z,75.1
2022-10-11T11:46:06.005Z,71.0
2022-10-11T11:51:06.648Z,75.0
2022-10-11T11:56:05.782Z,73.8
2022-10-11T12:01:06.102Z,75.6
2022-10-11T12:06:05.773Z,76.4
2022-10-11T12:11:06.027Z,73.3
2022-10-11T12:16:06.021Z,74.5
2022-10-11T12:21:06.283Z,74.9
2022-10-11T12:26:06.278Z,72.4
2022-10-11T12:31:06.088Z,71.1
2022-10-11T12:36:08.415Z,71.5
2022-10-11T12:41:05.792Z,71.7
2022-10-11T12:46:06.409Z,65.7
2022-10-11T12:51:05.806Z,68.5
2022-10-11T12:56:06.214Z,66.8
2022-10-11T13:01:06.314Z,65.7
2022-10-11T13:06:06.086Z,64.4
2022-10-11T13:11:05.816Z,67.2
2022-10-11T13:16:06.516Z,66.5
2022-10-11T13:21:06.153Z,69.0
2022-10-11T13:26:05.841Z,67.7
2022-10-11T13:31:06.160Z,67.4
2022-10-11T13:36:06.618Z,67.2
2022-10-11T13:41:05.832Z,67.9
2022-10-11T13:46:06.386Z,68.1
2022-10-11T13:51:05.848Z,68.1
2022-10-11T13:56:06.031Z,64.7
2022-10-11T14:01:05.901Z,60.2
2022-10-11T14:06:06.076Z,59.5
2022-10-11T14:11:06.847Z,59.6
2022-10-11T14:16:06.303Z,57.4
2022-10-11T14:21:06.222Z,60.7
2022-10-11T14:26:06.249Z,60.4
2022-10-11T14:31:06.217Z,60.8
2022-10-11T14:36:06.061Z,60.7
2022-10-11T14:41:06.388Z,61.5
2022-10-11T14:46:06.356Z,61.7
2022-10-11T14:51:05.881Z,59.5
2022-10-11T14:56:06.737Z,59.9
2022-10-11T15:01:05.898Z,64.1
2022-10-11T15:06:06.119Z,64.5
2022-10-11T15:11:05.883Z,64.3
2022-10-11T15:16:06.864Z,64.5
2022-10-11T15:21:06.142Z,65.5
2022-10-11T15:26:06.146Z,66.5
2022-10-11T15:31:05.903Z,63.9
2022-10-11T15:36:06.116Z,67.0
2022-10-11T15:41:05.909Z,68.8
2022-10-11T15:46:06.155Z,69.9
2022-10-11T15:51:06.398Z,69.3
2022-10-11T15:56:06.384Z,69.4
2022-10-11T16:01:06.257Z,70.2
2022-10-11T16:06:06.087Z,72.7
2022-10-11T16:11:05.927Z,72.2
2022-10-11T16:16:06.243Z,71.9
2022-10-11T16:21:06.229Z,73.1
2022-10-11T16:26:06.409Z,70.0
2022-10-11T16:31:06.727Z,69.4
2022-10-11T16:36:06.244Z,69.7
2022-10-11T16:41:05.943Z,71.7
2022-10-11T16:46:06.138Z,73.7
2022-10-11T16:51:05.946Z,76.7
2022-10-11T16:56:06.218Z,77.7
2022-10-11T17:01:06.523Z,79.1
2022-10-11T17:06:06.492Z,80.0
2022-10-11T17:11:05.960Z,81.2
2022-10-11T17:16:06.205Z,81.8
2022-10-11T17:21:05.968Z,80.9
2022-10-11T17:26:10.835Z,81.6
2022-10-11T17:31:06.253Z,82.5
2022-10-11T17:36:06.805Z,83.0
2022-10-11T17:41:06.515Z,83.1
2022-10-11T17:46:06.544Z,83.2
2022-10-11T17:51:06.295Z,83.4
2022-10-11T17:56:05.989Z,83.7
2022-10-11T18:01:06.514Z,84.0
2022-10-11T18:06:05.994Z,84.6
2022-10-11T18:11:06.789Z,84.6
2022-10-11T18:16:06.482Z,84.6
2022-10-11T18:21:06.000Z,85.0
2022-10-11T18:26:06.162Z,85.4
2022-10-11T18:31:11.552Z,85.7
2022-10-11T18:36:06.006Z,85.9
2022-10-11T18:41:06.242Z,86.1
2022-10-11T18:46:06.550Z,86.7
2022-10-11T18:51:06.538Z,87.2
2022-10-11T18:56:06.486Z,87.1
2022-10-11T19:01:06.095Z,87.3
2022-10-11T19:06:06.300Z,87.3
2022-10-11T19:11:06.032Z,87.2
2022-10-11T19:16:06.217Z,87.2
2022-10-11T19:21:06.621Z,87.5
2022-10-11T19:26:06.580Z,87.6
2022-10-11T19:31:06.276Z,88.0
2022-10-11T19:36:06.043Z,88.7
2022-10-11T19:41:06.049Z,88.7
2022-10-11T19:51:06.049Z,88.5
2022-10-11T20:01:06.122Z,89.3
2022-10-11T20:06:06.061Z,89.4
2022-10-11T20:11:06.070Z,89.4
2022-10-11T20:16:06.066Z,89.9
2022-10-11T20:21:06.067Z,89.7
2022-10-11T20:26:06.601Z,89.5
2022-10-11T20:31:06.879Z,89.3
2022-10-11T20:36:06.085Z,89.1
2022-10-11T20:41:06.081Z,88.8
2022-10-11T20:46:06.080Z,89.9
2022-10-11T20:51:06.087Z,89.8
2022-10-11T20:56:06.088Z,89.7
2022-10-11T21:01:06.130Z,90.0
2022-10-11T21:06:06.905Z,89.7
2022-10-11T21:11:06.102Z,90.1
2022-10-11T21:16:06.100Z,89.9
2022-10-11T21:21:06.109Z,90.1
2022-10-11T21:26:06.113Z,90.8
2022-10-11T21:31:06.109Z,91.1
2022-10-11T21:36:06.850Z,90.9
2022-10-11T21:41:06.118Z,90.8
2022-10-11T21:46:06.119Z,90.8
2022-10-11T21:51:06.228Z,90.6
2022-10-11T21:56:06.121Z,90.4
2022-10-11T22:01:06.224Z,91.4
2022-10-11T22:06:06.846Z,91.7
2022-10-11T22:11:06.135Z,91.8
2022-10-11T22:16:06.134Z,91.5
2022-10-11T22:21:06.135Z,91.5
2022-10-11T22:26:06.146Z,91.5
2022-10-11T22:31:06.145Z,92.0
2022-10-11T22:36:06.631Z,92.0
2022-10-11T22:41:06.149Z,91.8
2022-10-11T22:46:06.159Z,91.4
2022-10-11T22:51:06.150Z,91.5
2022-10-11T22:56:06.162Z,91.6
2022-10-11T23:01:06.160Z,91.5
2022-10-11T23:06:06.885Z,91.6
2022-10-11T23:11:06.166Z,91.7
2022-10-11T23:21:06.185Z,91.7
2022-10-11T23:26:06.181Z,91.9
2022-10-11T23:31:06.175Z,91.9
2022-10-11T23:36:07.438Z,91.9
2022-10-11T23:41:06.183Z,92.1
2022-10-11T23:46:06.192Z,92.1
2022-10-11T23:51:06.204Z,92.0
2022-10-11T23:56:06.198Z,91.8
